Time;durP1;ratioP1;P1;durP2;ratioP2;P2;SDS_P1;SDS_P2;PMS_P1;PMS_P2;Temp;Humidity;BMP_temperature;BMP_pressure;BME280_temperature;BME280_humidity;BME280_pressure;Samples;Min_cycle;Max_cycle;Signal;HPM_P1;HPM_P2
2021/08/11 00:00:36;;;;;;;19.88;14.55;;;;;;;;;;6249047;22;20137;-81
2021/08/11 00:03:03;;;;;;;21.65;14.82;;;;;;;;;;6249282;22;20023;-81
2021/08/11 00:05:30;;;;;;;23.80;14.30;;;;;;;;;;6251182;22;20111;-81
2021/08/11 00:07:57;;;;;;;20.50;13.98;;;;;;;;;;6277149;22;20019;-80
2021/08/11 00:10:23;;;;;;;19.42;13.38;;;;;;;;;;6276886;22;20131;-80
2021/08/11 00:12:50;;;;;;;22.25;13.52;;;;;;;;;;6250135;22;20039;-81
2021/08/11 00:15:17;;;;;;;20.73;13.10;;;;;;;;;;6277063;22;20093;-81
2021/08/11 00:17:44;;;;;;;23.08;14.60;;;;;;;;;;6251019;22;20357;-80
2021/08/11 00:20:10;;;;;;;26.02;16.00;;;;;;;;;;6249758;22;20094;-80
2021/08/11 00:22:37;;;;;;;23.75;15.32;;;;;;;;;;6250242;22;20024;-81
2021/08/11 00:25:03;;;;;;;25.52;15.23;;;;;;;;;;6276951;22;20024;-80
2021/08/11 00:27:30;;;;;;;29.52;15.68;;;;;;;;;;6251038;22;20074;-80
2021/08/11 00:29:57;;;;;;;20.55;13.52;;;;;;;;;;6251046;22;20024;-80
2021/08/11 00:32:23;;;;;;;22.17;15.40;;;;;;;;;;6271076;22;20035;-81
2021/08/11 00:34:50;;;;;;;28.15;15.38;;;;;;;;;;6245432;23;20043;-81
2021/08/11 00:37:16;;;;;;;28.75;15.48;;;;;;;;;;6219094;23;20391;-81
2021/08/11 00:39:45;;;;;;;22.00;14.63;;;;;;;;;;6247051;23;20028;-80
2021/08/11 00:42:11;;;;;;;28.40;16.38;;;;;;;;;;6245931;23;20185;-81
2021/08/11 00:44:38;;;;;;;29.95;17.38;;;;;;;;;;6220329;23;20028;-81
2021/08/11 00:47:05;;;;;;;29.67;17.52;;;;;;;;;;6220602;23;20346;-81
2021/08/11 00:49:31;;;;;;;33.83;18.17;;;;;;;;;;6247496;23;20024;-81
2021/08/11 00:51:58;;;;;;;37.50;19.00;;;;;;;;;;6220772;23;20110;-81
2021/08/11 00:54:24;;;;;;;39.42;20.73;;;;;;;;;;6246749;23;20082;-81
2021/08/11 00:56:52;;;;;;;32.35;20.30;;;;;;;;;;6246754;23;20281;-81
2021/08/11 00:59:19;;;;;;;31.60;20.92;;;;;;;;;;6230508;23;20295;-81
2021/08/11 01:01:48;;;;;;;33.95;20.73;;;;;;;;;;6240537;23;20028;-80
2021/08/11 01:04:16;;;;;;;32.42;19.90;;;;;;;;;;6240121;23;20180;-81
2021/08/11 01:06:43;;;;;;;30.90;20.30;;;;;;;;;;6265969;23;20055;-81
2021/08/11 01:09:14;;;;;;;35.80;21.73;;;;;;;;;;6266048;23;20012;-80
2021/08/11 01:11:42;;;;;;;29.83;19.08;;;;;;;;;;6228472;23;20024;-81
2021/08/11 01:14:09;;;;;;;33.58;21.33;;;;;;;;;;6222306;23;20036;-81
2021/08/11 01:16:36;;;;;;;32.42;20.25;;;;;;;;;;6221525;23;20391;-81
2021/08/11 01:19:02;;;;;;;37.67;21.90;;;;;;;;;;6222144;23;20086;-81
2021/08/11 01:21:31;;;;;;;30.40;20.83;;;;;;;;;;6247797;23;20377;-82
2021/08/11 01:24:00;;;;;;;38.03;22.60;;;;;;;;;;6219302;23;20028;-82
2021/08/11 01:26:36;;;;;;;30.40;21.95;;;;;;;;;;6226249;23;20028;-82
2021/08/11 01:29:05;;;;;;;36.10;22.58;;;;;;;;;;6266408;22;20012;-82
2021/08/11 01:32:01;;;;;;;35.78;23.58;;;;;;;;;;6265829;22;20152;-82
2021/08/11 01:34:30;;;;;;;33.30;20.77;;;;;;;;;;6165281;22;20013;-83
2021/08/11 01:37:00;;;;;;;31.52;20.80;;;;;;;;;;6264339;22;20054;-82
2021/08/11 01:39:26;;;;;;;37.63;23.40;;;;;;;;;;6291709;22;20011;-82
2021/08/11 01:41:55;;;;;;;34.47;21.63;;;;;;;;;;6265844;22;20024;-83
2021/08/11 01:44:23;;;;;;;35.70;22.55;;;;;;;;;;6267423;22;20069;-82
2021/08/11 01:46:51;;;;;;;42.28;24.02;;;;;;;;;;6265299;22;20023;-83
2021/08/11 01:49:21;;;;;;;30.95;21.08;;;;;;;;;;6283122;22;20030;-81
2021/08/11 01:51:48;;;;;;;33.88;21.05;;;;;;;;;;6252705;22;20386;-81
2021/08/11 01:54:15;;;;;;;36.30;24.27;;;;;;;;;;6277571;22;20382;-81
2021/08/11 01:56:42;;;;;;;36.70;21.02;;;;;;;;;;6251211;22;20059;-81
2021/08/11 01:59:12;;;;;;;35.78;22.65;;;;;;;;;;6249749;22;20058;-81
2021/08/11 02:01:39;;;;;;;40.05;23.30;;;;;;;;;;6278249;22;20031;-81
2021/08/11 02:04:07;;;;;;;38.75;24.20;;;;;;;;;;6281800;22;20050;-81
2021/08/11 02:06:34;;;;;;;39.88;24.88;;;;;;;;;;6278966;22;20023;-81
2021/08/11 02:09:01;;;;;;;40.13;25.10;;;;;;;;;;6277012;22;20050;-81
2021/08/11 02:11:28;;;;;;;43.55;27.00;;;;;;;;;;6279680;22;20329;-81
2021/08/11 02:13:56;;;;;;;42.70;25.17;;;;;;;;;;6279386;22;20043;-81
2021/08/11 02:16:22;;;;;;;42.03;27.50;;;;;;;;;;6252234;22;20191;-81
2021/08/11 02:18:50;;;;;;;40.13;24.95;;;;;;;;;;6254515;22;20028;-82
2021/08/11 02:21:20;;;;;;;44.88;26.45;;;;;;;;;;6251060;22;20059;-81
2021/08/11 02:23:47;;;;;;;40.28;24.55;;;;;;;;;;6249640;22;20026;-82
2021/08/11 02:26:21;;;;;;;37.75;23.00;;;;;;;;;;6250546;22;20081;-81
2021/08/11 02:29:20;;;;;;;35.85;23.88;;;;;;;;;;6279570;22;20077;-82
2021/08/11 02:31:50;;;;;;;34.78;23.02;;;;;;;;;;6186888;22;20051;-82
2021/08/11 02:34:19;;;;;;;36.80;23.38;;;;;;;;;;6262497;22;20024;-82
2021/08/11 02:36:52;;;;;;;40.80;24.80;;;;;;;;;;6290924;22;20077;-82
2021/08/11 02:39:23;;;;;;;39.72;25.88;;;;;;;;;;6283210;22;20024;-82
2021/08/11 02:41:59;;;;;;;37.03;23.75;;;;;;;;;;6281755;22;20028;-83
2021/08/11 02:44:46;;;;;;;40.50;26.33;;;;;;;;;;6292582;22;20016;-83
2021/08/11 02:47:15;;;;;;;41.40;24.77;;;;;;;;;;6273786;22;20015;-82
2021/08/11 02:49:42;;;;;;;42.53;26.27;;;;;;;;;;6255871;22;20029;-82
2021/08/11 02:52:11;;;;;;;46.50;26.67;;;;;;;;;;6253400;22;20035;-82
2021/08/11 02:54:39;;;;;;;39.15;25.55;;;;;;;;;;6254169;22;20024;-82
2021/08/11 02:57:06;;;;;;;37.72;24.55;;;;;;;;;;6250572;22;20078;-82
2021/08/11 02:59:32;;;;;;;41.65;24.17;;;;;;;;;;6250283;22;20448;-82
2021/08/11 03:01:59;;;;;;;39.92;25.20;;;;;;;;;;6274669;22;20031;-82
2021/08/11 03:04:26;;;;;;;38.30;24.67;;;;;;;;;;6251155;22;20023;-82
2021/08/11 03:06:52;;;;;;;39.08;25.80;;;;;;;;;;6251070;22;20028;-82
2021/08/11 03:09:21;;;;;;;35.50;23.13;;;;;;;;;;6250609;22;20425;-82
2021/08/11 03:11:48;;;;;;;37.92;24.08;;;;;;;;;;6276755;22;20043;-82
2021/08/11 03:14:14;;;;;;;43.85;25.13;;;;;;;;;;6250247;22;20016;-82
2021/08/11 03:16:41;;;;;;;39.95;25.00;;;;;;;;;;6250775;22;20028;-82
2021/08/11 03:19:08;;;;;;;38.92;26.38;;;;;;;;;;6277132;22;20354;-82
2021/08/11 03:21:35;;;;;;;47.22;25.45;;;;;;;;;;6250025;22;20019;-82
2021/08/11 03:24:01;;;;;;;35.55;24.63;;;;;;;;;;6276894;22;20022;-81
2021/08/11 03:26:28;;;;;;;41.60;24.80;;;;;;;;;;6250574;22;20156;-82
2021/08/11 03:29:00;;;;;;;39.20;25.50;;;;;;;;;;6251744;22;20030;-82
2021/08/11 03:31:27;;;;;;;36.47;24.55;;;;;;;;;;6251284;22;20333;-82
2021/08/11 03:34:00;;;;;;;35.10;22.70;;;;;;;;;;6250804;22;20237;-81
2021/08/11 03:36:28;;;;;;;42.13;23.88;;;;;;;;;;6278581;22;20027;-81
2021/08/11 03:38:54;;;;;;;35.28;23.35;;;;;;;;;;6254184;22;20027;-82
2021/08/11 03:41:24;;;;;;;37.83;23.48;;;;;;;;;;6250687;22;20055;-82
2021/08/11 03:43:51;;;;;;;42.38;23.77;;;;;;;;;;6278428;22;20398;-84
2021/08/11 03:46:34;;;;;;;37.38;23.00;;;;;;;;;;6253870;22;20111;-82
2021/08/11 03:49:01;;;;;;;35.15;22.83;;;;;;;;;;6279306;22;20024;-81
2021/08/11 03:51:27;;;;;;;34.40;21.98;;;;;;;;;;6251718;22;20066;-81
2021/08/11 03:53:57;;;;;;;45.30;25.63;;;;;;;;;;6251084;22;20023;-81
2021/08/11 03:56:23;;;;;;;43.80;25.40;;;;;;;;;;6252073;22;20032;-81
2021/08/11 03:58:50;;;;;;;44.60;26.02;;;;;;;;;;6252999;22;20074;-82
2021/08/11 04:01:19;;;;;;;44.33;27.23;;;;;;;;;;6277897;22;20031;-82
2021/08/11 04:03:46;;;;;;;49.47;27.50;;;;;;;;;;6278834;22;20031;-82
2021/08/11 04:06:13;;;;;;;42.03;24.77;;;;;;;;;;6278883;22;20189;-82
2021/08/11 04:08:40;;;;;;;46.63;27.20;;;;;;;;;;6278905;22;20405;-82
2021/08/11 04:11:06;;;;;;;39.13;23.85;;;;;;;;;;6277130;22;20028;-82
2021/08/11 04:13:32;;;;;;;33.55;22.00;;;;;;;;;;6277587;22;20055;-82
2021/08/11 04:15:59;;;;;;;33.05;21.45;;;;;;;;;;6251265;22;20031;-82
2021/08/11 04:18:26;;;;;;;115.40;30.00;;;;;;;;;;6252556;22;20027;-81
2021/08/11 04:20:52;;;;;;;39.33;24.30;;;;;;;;;;6251393;22;20046;-81
2021/08/11 04:23:19;;;;;;;42.00;25.98;;;;;;;;;;6249713;22;20106;-82
2021/08/11 04:25:45;;;;;;;51.53;28.25;;;;;;;;;;6249508;22;20020;-82
2021/08/11 04:28:12;;;;;;;50.55;28.73;;;;;;;;;;6274699;22;20091;-81
2021/08/11 04:30:40;;;;;;;46.20;25.70;;;;;;;;;;6278062;22;20023;-82
2021/08/11 04:33:07;;;;;;;97.05;29.90;;;;;;;;;;6253616;22;20024;-82
2021/08/11 04:35:36;;;;;;;46.45;27.25;;;;;;;;;;6282251;22;20027;-82
2021/08/11 04:38:03;;;;;;;45.70;26.55;;;;;;;;;;6280039;22;20051;-83
2021/08/11 04:40:29;;;;;;;42.13;26.73;;;;;;;;;;6253639;22;20036;-82
2021/08/11 04:42:56;;;;;;;47.00;28.33;;;;;;;;;;6252629;22;20143;-82
2021/08/11 04:45:22;;;;;;;53.17;30.33;;;;;;;;;;6274936;22;20023;-82
2021/08/11 04:47:49;;;;;;;49.63;30.00;;;;;;;;;;6247034;22;20042;-82
2021/08/11 04:50:16;;;;;;;78.93;32.08;;;;;;;;;;6275601;22;20024;-82
2021/08/11 04:52:42;;;;;;;54.78;30.50;;;;;;;;;;6247209;22;20027;-82
2021/08/11 04:55:12;;;;;;;52.00;30.70;;;;;;;;;;6273536;22;20019;-82
2021/08/11 04:57:39;;;;;;;46.22;28.98;;;;;;;;;;6278161;22;20054;-82
2021/08/11 05:00:06;;;;;;;41.08;26.52;;;;;;;;;;6251221;22;20027;-83
2021/08/11 05:02:33;;;;;;;44.95;28.85;;;;;;;;;;6248391;22;20028;-83
2021/08/11 05:04:59;;;;;;;47.38;30.02;;;;;;;;;;6250046;22;20027;-82
2021/08/11 05:07:26;;;;;;;42.22;27.48;;;;;;;;;;6250733;22;20020;-82
2021/08/11 05:09:53;;;;;;;42.47;28.13;;;;;;;;;;6250071;22;20051;-82
2021/08/11 05:12:19;;;;;;;38.10;27.70;;;;;;;;;;6275001;22;20028;-82
2021/08/11 05:14:46;;;;;;;40.53;28.80;;;;;;;;;;6247597;22;20023;-83
2021/08/11 05:17:12;;;;;;;56.50;35.15;;;;;;;;;;6248956;22;20074;-83
2021/08/11 05:19:39;;;;;;;59.70;38.83;;;;;;;;;;6275595;22;20034;-82
2021/08/11 05:22:05;;;;;;;51.38;34.80;;;;;;;;;;6274639;22;20133;-83
2021/08/11 05:24:32;;;;;;;49.67;34.15;;;;;;;;;;6247282;22;20086;-83
2021/08/11 05:26:59;;;;;;;43.60;32.13;;;;;;;;;;6247696;22;20034;-83
2021/08/11 05:29:25;;;;;;;39.05;27.73;;;;;;;;;;6246523;22;20023;-83
2021/08/11 05:31:52;;;;;;;34.22;27.23;;;;;;;;;;6245472;22;20047;-84
2021/08/11 05:34:18;;;;;;;36.47;25.58;;;;;;;;;;6246948;22;20085;-82
2021/08/11 05:36:45;;;;;;;26.02;21.67;;;;;;;;;;6272794;22;20081;-83
2021/08/11 05:39:12;;;;;;;21.45;17.23;;;;;;;;;;6247086;22;20302;-83
2021/08/11 05:41:38;;;;;;;21.02;16.10;;;;;;;;;;6273670;22;20262;-82
2021/08/11 05:44:08;;;;;;;18.90;14.30;;;;;;;;;;6279202;22;20023;-82
2021/08/11 05:46:34;;;;;;;17.88;15.25;;;;;;;;;;6255367;22;20024;-81
2021/08/11 05:49:02;;;;;;;20.73;14.07;;;;;;;;;;6251411;22;20092;-83
2021/08/11 05:51:33;;;;;;;17.73;13.88;;;;;;;;;;6249052;22;20024;-82
2021/08/11 05:54:03;;;;;;;16.63;11.98;;;;;;;;;;6292513;22;20016;-82
2021/08/11 05:56:33;;;;;;;17.85;13.63;;;;;;;;;;6262216;22;20216;-81
2021/08/11 05:58:59;;;;;;;13.75;11.70;;;;;;;;;;6253146;22;20035;-81
2021/08/11 06:01:26;;;;;;;18.52;12.10;;;;;;;;;;6269102;22;20016;-80
2021/08/11 06:03:54;;;;;;;15.98;12.52;;;;;;;;;;6248292;22;20341;-80
2021/08/11 06:06:22;;;;;;;21.95;11.52;;;;;;;;;;6247910;22;20024;-80
2021/08/11 06:08:48;;;;;;;15.18;10.32;;;;;;;;;;6268677;22;20078;-81
2021/08/11 06:11:15;;;;;;;17.23;11.35;;;;;;;;;;6267461;22;20020;-81
2021/08/11 06:13:42;;;;;;;14.73;10.77;;;;;;;;;;6269441;22;20106;-81
2021/08/11 06:16:08;;;;;;;16.52;11.45;;;;;;;;;;6241839;22;20127;-81
2021/08/11 06:18:35;;;;;;;13.45;11.48;;;;;;;;;;6269948;22;20047;-80
2021/08/11 06:21:02;;;;;;;15.00;11.60;;;;;;;;;;6242032;22;20102;-81
2021/08/11 06:23:28;;;;;;;15.43;10.18;;;;;;;;;;6265852;22;20298;-81
2021/08/11 06:25:55;;;;;;;15.45;12.18;;;;;;;;;;6240586;22;20147;-81
2021/08/11 06:28:21;;;;;;;17.83;11.77;;;;;;;;;;6240065;22;20034;-81
2021/08/11 06:30:48;;;;;;;15.93;12.32;;;;;;;;;;6236864;22;20023;-81
2021/08/11 06:33:15;;;;;;;17.38;12.75;;;;;;;;;;6236811;22;20034;-81
2021/08/11 06:35:42;;;;;;;15.68;11.57;;;;;;;;;;6264406;22;20047;-81
2021/08/11 06:38:08;;;;;;;18.73;11.05;;;;;;;;;;6237050;22;20028;-80
2021/08/11 06:40:36;;;;;;;14.20;10.48;;;;;;;;;;6236240;22;20035;-80
2021/08/11 06:43:02;;;;;;;13.73;10.18;;;;;;;;;;6264267;22;20020;-80
2021/08/11 06:45:29;;;;;;;15.38;9.65;;;;;;;;;;6237859;22;20027;-80
2021/08/11 06:47:55;;;;;;;12.18;8.90;;;;;;;;;;6266091;22;20023;-81
2021/08/11 06:50:28;;;;;;;13.25;8.88;;;;;;;;;;6264092;22;20050;-82
2021/08/11 06:52:59;;;;;;;12.32;8.32;;;;;;;;;;6237566;22;20020;-81
2021/08/11 06:55:27;;;;;;;15.15;8.73;;;;;;;;;;6238504;22;20035;-81
2021/08/11 06:57:57;;;;;;;13.63;9.00;;;;;;;;;;6241522;22;20023;-81
2021/08/11 07:00:29;;;;;;;12.88;7.93;;;;;;;;;;6239232;22;20028;-82
2021/08/11 07:02:56;;;;;;;10.48;7.50;;;;;;;;;;6237215;22;20039;-80
2021/08/11 07:05:27;;;;;;;14.77;8.13;;;;;;;;;;6269553;22;20054;-82
2021/08/11 07:07:54;;;;;;;12.02;8.32;;;;;;;;;;6239003;22;20024;-81
2021/08/11 07:10:20;;;;;;;12.75;7.45;;;;;;;;;;6290350;22;20353;-81
2021/08/11 07:12:48;;;;;;;14.32;7.72;;;;;;;;;;6238304;22;20355;-81
2021/08/11 07:15:15;;;;;;;13.30;7.40;;;;;;;;;;6275683;22;20022;-82
2021/08/11 07:17:57;;;;;;;9.32;6.25;;;;;;;;;;6239640;22;20027;-81
2021/08/11 07:20:24;;;;;;;11.05;6.63;;;;;;;;;;6239938;22;20209;-81
2021/08/11 07:22:55;;;;;;;10.02;6.82;;;;;;;;;;6237681;22;20136;-82
2021/08/11 07:25:22;;;;;;;14.00;7.47;;;;;;;;;;6289982;22;20456;-82
2021/08/11 07:27:50;;;;;;;10.50;7.10;;;;;;;;;;6240282;22;20023;-81
2021/08/11 07:30:17;;;;;;;12.68;7.10;;;;;;;;;;6267295;22;20273;-82
2021/08/11 07:32:44;;;;;;;14.05;6.90;;;;;;;;;;6258081;22;20025;-83
2021/08/11 07:35:12;;;;;;;10.60;6.53;;;;;;;;;;6237986;23;20084;-81
2021/08/11 07:37:46;;;;;;;12.73;5.85;;;;;;;;;;6212813;23;20487;-82
2021/08/11 07:40:13;;;;;;;8.70;5.38;;;;;;;;;;6238235;23;20028;-82
2021/08/11 07:42:46;;;;;;;10.35;5.70;;;;;;;;;;6212393;23;20028;-82
2021/08/11 07:45:15;;;;;;;10.38;6.00;;;;;;;;;;6213476;23;20039;-82
2021/08/11 07:47:46;;;;;;;10.82;6.40;;;;;;;;;;6212753;23;20027;-83
2021/08/11 07:50:16;;;;;;;10.68;5.35;;;;;;;;;;6212185;23;20051;-82
2021/08/11 07:52:44;;;;;;;11.35;4.85;;;;;;;;;;6212101;23;20020;-81
2021/08/11 07:55:11;;;;;;;8.75;5.93;;;;;;;;;;6211134;23;20028;-81
2021/08/11 07:57:38;;;;;;;10.40;4.90;;;;;;;;;;6211604;23;20131;-82
2021/08/11 08:00:06;;;;;;;8.27;4.72;;;;;;;;;;6211908;23;20298;-82
2021/08/11 08:02:33;;;;;;;10.07;4.85;;;;;;;;;;6212719;23;20386;-82
2021/08/11 08:05:12;;;;;;;7.43;4.60;;;;;;;;;;6216030;23;20024;-82
2021/08/11 08:07:42;;;;;;;14.32;5.10;;;;;;;;;;6240267;23;20024;-83
2021/08/11 08:10:09;;;;;;;10.43;5.32;;;;;;;;;;6239941;23;20075;-83
2021/08/11 08:12:38;;;;;;;8.73;4.80;;;;;;;;;;6212782;23;20028;-83
2021/08/11 08:15:08;;;;;;;10.25;4.25;;;;;;;;;;6244169;23;20078;-83
2021/08/11 08:17:35;;;;;;;12.77;4.22;;;;;;;;;;6241101;23;20032;-83
2021/08/11 08:20:14;;;;;;;10.60;4.63;;;;;;;;;;6214389;23;20205;-83
2021/08/11 08:22:50;;;;;;;12.52;4.80;;;;;;;;;;6210927;23;20028;-83
2021/08/11 08:25:21;;;;;;;8.30;3.97;;;;;;;;;;6210633;23;20436;-83
2021/08/11 08:27:51;;;;;;;7.88;4.00;;;;;;;;;;6211279;23;20024;-83
2021/08/11 08:30:39;;;;;;;6.68;3.58;;;;;;;;;;6214074;23;20024;-83
2021/08/11 08:33:06;;;;;;;8.32;3.90;;;;;;;;;;6225835;22;20325;-83
2021/08/11 08:35:33;;;;;;;7.30;3.30;;;;;;;;;;6294179;22;20031;-83
2021/08/11 08:37:59;;;;;;;10.45;5.25;;;;;;;;;;6271847;22;20478;-83
2021/08/11 08:40:31;;;;;;;6.82;4.30;;;;;;;;;;6271413;22;20034;-83
2021/08/11 08:43:06;;;;;;;6.40;3.60;;;;;;;;;;6245757;22;20115;-83
2021/08/11 08:45:34;;;;;;;6.32;3.45;;;;;;;;;;6255912;22;20008;-82
2021/08/11 08:48:08;;;;;;;7.03;3.75;;;;;;;;;;6283291;22;20066;-83
2021/08/11 08:50:35;;;;;;;9.95;3.47;;;;;;;;;;6286825;22;20024;-83
2021/08/11 08:53:04;;;;;;;6.50;3.05;;;;;;;;;;6260016;22;20208;-83
2021/08/11 08:55:34;;;;;;;7.30;3.58;;;;;;;;;;6287794;22;20076;-83
2021/08/11 08:58:08;;;;;;;6.13;3.25;;;;;;;;;;6262854;22;20024;-83
2021/08/11 09:00:38;;;;;;;8.82;3.33;;;;;;;;;;6279752;22;20183;-83
2021/08/11 09:03:05;;;;;;;7.40;3.28;;;;;;;;;;6263537;22;20105;-83
2021/08/11 09:05:32;;;;;;;5.55;2.85;;;;;;;;;;6262641;22;20401;-84
2021/08/11 09:08:06;;;;;;;6.35;3.03;;;;;;;;;;6288639;22;20035;-82
2021/08/11 09:10:35;;;;;;;9.05;4.15;;;;;;;;;;6249890;22;20024;-83
2021/08/11 09:13:08;;;;;;;7.75;3.35;;;;;;;;;;6251575;22;20035;-83
2021/08/11 09:15:37;;;;;;;6.45;2.80;;;;;;;;;;6258495;22;20030;-83
2021/08/11 09:18:15;;;;;;;6.43;3.10;;;;;;;;;;6260364;22;20239;-83
2021/08/11 09:20:46;;;;;;;7.45;3.00;;;;;;;;;;6257059;22;20188;-83
2021/08/11 09:23:15;;;;;;;4.78;2.80;;;;;;;;;;6245535;22;20409;-83
2021/08/11 09:25:59;;;;;;;8.52;3.20;;;;;;;;;;6271255;22;20102;-83
2021/08/11 09:28:30;;;;;;;7.90;3.38;;;;;;;;;;6245049;22;20030;-85
2021/08/11 09:31:19;;;;;;;10.52;3.83;;;;;;;;;;6244934;22;20045;-82
2021/08/11 09:33:50;;;;;;;8.48;3.55;;;;;;;;;;6244305;22;20023;-84
2021/08/11 09:36:17;;;;;;;6.43;3.13;;;;;;;;;;6260284;22;20024;-82
2021/08/11 09:39:04;;;;;;;8.65;3.15;;;;;;;;;;6245407;22;20037;-83
2021/08/11 09:41:32;;;;;;;6.32;3.70;;;;;;;;;;6232657;22;20043;-83
2021/08/11 09:44:09;;;;;;;6.97;3.47;;;;;;;;;;6269704;22;20024;-83
2021/08/11 09:46:38;;;;;;;5.70;3.90;;;;;;;;;;6241830;22;20020;-83
2021/08/11 09:49:15;;;;;;;6.90;3.30;;;;;;;;;;6247892;22;20083;-84
2021/08/11 09:51:59;;;;;;;5.90;2.92;;;;;;;;;;6245703;22;20185;-84
2021/08/11 09:54:26;;;;;;;4.72;2.90;;;;;;;;;;6241776;22;20046;-85
2021/08/11 09:56:52;;;;;;;10.32;3.78;;;;;;;;;;6244070;22;20038;-84
2021/08/11 09:59:25;;;;;;;5.57;3.30;;;;;;;;;;6273376;22;20028;-83
2021/08/11 10:02:13;;;;;;;7.40;3.83;;;;;;;;;;6248188;22;20109;-86
2021/08/11 10:04:44;;;;;;;6.30;3.33;;;;;;;;;;6246024;22;20054;-84
2021/08/11 10:07:10;;;;;;;5.20;3.25;;;;;;;;;;6272643;22;20020;-86
2021/08/11 10:09:39;;;;;;;5.68;2.88;;;;;;;;;;6247636;22;20105;-85
2021/08/11 10:12:24;;;;;;;7.75;3.25;;;;;;;;;;6247797;22;20030;-85
2021/08/11 10:14:51;;;;;;;4.40;2.92;;;;;;;;;;6245290;22;20207;-85
2021/08/11 10:17:18;;;;;;;6.30;2.50;;;;;;;;;;6247772;22;20081;-84
2021/08/11 10:19:44;;;;;;;10.68;2.80;;;;;;;;;;6271932;22;20491;-84
2021/08/11 10:22:11;;;;;;;7.13;3.83;;;;;;;;;;6289417;22;20026;-84
2021/08/11 10:24:39;;;;;;;9.18;3.63;;;;;;;;;;6271727;22;20257;-84
2021/08/11 10:27:06;;;;;;;5.28;3.35;;;;;;;;;;6274511;22;20402;-84
2021/08/11 10:29:35;;;;;;;7.68;3.28;;;;;;;;;;6246045;22;20263;-84
2021/08/11 10:32:08;;;;;;;5.30;3.40;;;;;;;;;;6245518;22;20020;-84
2021/08/11 10:34:35;;;;;;;6.07;2.97;;;;;;;;;;6241129;22;20054;-84
2021/08/11 10:37:05;;;;;;;5.90;2.75;;;;;;;;;;6267909;22;20027;-85
2021/08/11 10:39:31;;;;;;;6.32;3.35;;;;;;;;;;6241786;22;20043;-84
2021/08/11 10:42:17;;;;;;;4.78;3.22;;;;;;;;;;6242337;22;20077;-83
2021/08/11 10:44:44;;;;;;;5.57;2.80;;;;;;;;;;6242457;22;20055;-84
2021/08/11 10:47:15;;;;;;;5.82;3.15;;;;;;;;;;6273921;22;20034;-84
2021/08/11 10:49:58;;;;;;;4.82;2.55;;;;;;;;;;6250015;22;20031;-85
2021/08/11 10:52:25;;;;;;;5.93;3.00;;;;;;;;;;6252892;22;20335;-84
2021/08/11 10:54:56;;;;;;;6.68;3.20;;;;;;;;;;6274440;22;20179;-84
2021/08/11 10:57:39;;;;;;;9.40;3.70;;;;;;;;;;6244909;22;20031;-84
2021/08/11 11:00:10;;;;;;;7.60;3.15;;;;;;;;;;6272900;22;20420;-84
2021/08/11 11:02:40;;;;;;;5.53;3.45;;;;;;;;;;6245619;22;20015;-84
2021/08/11 11:05:19;;;;;;;7.75;3.90;;;;;;;;;;6266258;22;20181;-84
2021/08/11 11:08:05;;;;;;;6.07;3.17;;;;;;;;;;6289888;22;20090;-85
2021/08/11 11:10:32;;;;;;;5.47;3.63;;;;;;;;;;6291623;22;20261;-83
2021/08/11 11:13:21;;;;;;;5.97;2.90;;;;;;;;;;6261135;22;20052;-83
2021/08/11 11:15:48;;;;;;;8.32;3.75;;;;;;;;;;6249638;22;20230;-83
2021/08/11 11:18:20;;;;;;;8.85;2.97;;;;;;;;;;6247232;22;20067;-83
2021/08/11 11:21:10;;;;;;;5.13;3.30;;;;;;;;;;6274967;22;20497;-84
2021/08/11 11:23:44;;;;;;;6.53;3.17;;;;;;;;;;6224529;22;20034;-85
2021/08/11 11:26:30;;;;;;;7.85;2.80;;;;;;;;;;6247210;22;20251;-85
2021/08/11 11:29:04;;;;;;;6.63;3.72;;;;;;;;;;6247770;22;20333;-84
2021/08/11 11:31:51;;;;;;;6.80;2.85;;;;;;;;;;6247693;22;20020;-84
2021/08/11 11:34:21;;;;;;;9.55;3.58;;;;;;;;;;6249548;22;20321;-84
2021/08/11 11:36:51;;;;;;;3.88;2.95;;;;;;;;;;6252168;22;20085;-84
2021/08/11 11:39:18;;;;;;;8.35;3.92;;;;;;;;;;6254950;22;20024;-84
2021/08/11 11:42:11;;;;;;;4.82;2.97;;;;;;;;;;6276162;22;20236;-84
2021/08/11 11:44:42;;;;;;;8.43;3.35;;;;;;;;;;6246524;22;20027;-84
2021/08/11 11:47:17;;;;;;;7.25;3.50;;;;;;;;;;6271621;22;20419;-84
2021/08/11 11:50:18;;;;;;;6.55;3.17;;;;;;;;;;6245887;22;20059;-84
2021/08/11 11:52:54;;;;;;;5.80;3.25;;;;;;;;;;6181430;22;20035;-84
2021/08/11 11:55:25;;;;;;;5.75;3.00;;;;;;;;;;6246737;22;20295;-84
2021/08/11 11:57:53;;;;;;;6.47;3.42;;;;;;;;;;6248204;22;20071;-84
2021/08/11 12:00:20;;;;;;;5.53;3.10;;;;;;;;;;6261404;22;20201;-87
2021/08/11 12:02:54;;;;;;;6.38;3.22;;;;;;;;;;6270507;22;20067;-86
2021/08/11 12:05:41;;;;;;;4.72;3.08;;;;;;;;;;6286080;22;20047;-86
2021/08/11 12:08:20;;;;;;;5.30;3.25;;;;;;;;;;6277385;22;20031;-86
2021/08/11 12:10:48;;;;;;;6.25;2.90;;;;;;;;;;6288847;22;20016;-86
2021/08/11 12:13:16;;;;;;;7.40;3.33;;;;;;;;;;6291323;22;20028;-86
2021/08/11 12:15:49;;;;;;;4.80;2.72;;;;;;;;;;6264385;22;20019;-86
2021/08/11 12:18:23;;;;;;;8.18;3.13;;;;;;;;;;6265921;22;20019;-85
2021/08/11 12:20:54;;;;;;;4.72;2.70;;;;;;;;;;6254705;22;20030;-87
2021/08/11 12:23:26;;;;;;;6.57;3.38;;;;;;;;;;6281290;22;20062;-85
2021/08/11 12:29:16;;;;;;;6.13;3.35;;;;;;;;;;6300632;22;20026;-85
2021/08/11 12:31:45;;;;;;;9.70;3.83;;;;;;;;;;6256124;22;20083;-86
2021/08/11 12:34:18;;;;;;;6.47;3.03;;;;;;;;;;6285469;22;20055;-85
2021/08/11 12:36:45;;;;;;;4.45;2.88;;;;;;;;;;6249763;22;20124;-85
2021/08/11 12:39:13;;;;;;;7.97;3.60;;;;;;;;;;6275147;22;20090;-85
2021/08/11 12:41:46;;;;;;;6.25;3.05;;;;;;;;;;6249218;22;20091;-87
2021/08/11 12:44:24;;;;;;;4.60;2.85;;;;;;;;;;6275624;22;20565;-86
2021/08/11 12:46:56;;;;;;;5.35;2.75;;;;;;;;;;6273959;22;20036;-85
2021/08/11 12:49:25;;;;;;;4.88;3.10;;;;;;;;;;6262553;22;20036;-85
2021/08/11 12:52:11;;;;;;;5.85;2.78;;;;;;;;;;6249481;22;20430;-85
2021/08/11 12:54:58;;;;;;;4.43;2.72;;;;;;;;;;6253523;22;20028;-87
2021/08/11 12:57:42;;;;;;;9.43;3.05;;;;;;;;;;6287802;22;20027;-86
2021/08/11 13:00:14;;;;;;;7.13;3.28;;;;;;;;;;6263670;22;20011;-85
2021/08/11 13:02:45;;;;;;;4.03;2.45;;;;;;;;;;6277462;22;20034;-84
2021/08/11 13:05:17;;;;;;;5.95;2.92;;;;;;;;;;6249494;22;20250;-86
2021/08/11 13:07:54;;;;;;;3.30;2.15;;;;;;;;;;6248873;22;20027;-85
2021/08/11 13:10:24;;;;;;;5.97;2.47;;;;;;;;;;6230960;22;20458;-85
2021/08/11 13:12:51;;;;;;;4.38;2.00;;;;;;;;;;6243555;22;20061;-85
2021/08/11 13:15:24;;;;;;;5.50;2.33;;;;;;;;;;6244143;22;20019;-86
2021/08/11 13:17:51;;;;;;;4.60;2.30;;;;;;;;;;6270077;22;20024;-85
2021/08/11 13:20:20;;;;;;;4.97;2.60;;;;;;;;;;6245353;22;20054;-86
2021/08/11 13:22:53;;;;;;;5.88;2.40;;;;;;;;;;6244413;22;20355;-86
2021/08/11 13:25:21;;;;;;;4.32;2.30;;;;;;;;;;6245828;22;20197;-85
2021/08/11 13:27:51;;;;;;;4.53;2.47;;;;;;;;;;6247574;22;20112;-85
2021/08/11 13:30:18;;;;;;;5.30;2.50;;;;;;;;;;6243087;22;20508;-85
2021/08/11 13:32:45;;;;;;;6.75;2.78;;;;;;;;;;6241791;22;20044;-85
2021/08/11 13:35:15;;;;;;;6.55;2.92;;;;;;;;;;6270259;22;20028;-87
2021/08/11 13:37:42;;;;;;;4.63;2.30;;;;;;;;;;6270065;22;20409;-85
2021/08/11 13:40:09;;;;;;;4.70;2.60;;;;;;;;;;6245754;22;20051;-85
2021/08/11 13:42:36;;;;;;;6.05;2.72;;;;;;;;;;6245647;22;20023;-84
2021/08/11 13:45:06;;;;;;;6.90;2.65;;;;;;;;;;6273646;22;20067;-85
2021/08/11 13:47:34;;;;;;;4.20;2.47;;;;;;;;;;6246802;22;20034;-85
2021/08/11 13:50:05;;;;;;;6.20;2.50;;;;;;;;;;6248195;22;20027;-84
2021/08/11 13:52:31;;;;;;;8.27;2.80;;;;;;;;;;6285521;22;20012;-85
2021/08/11 13:54:58;;;;;;;5.07;2.22;;;;;;;;;;6252607;22;20304;-85
2021/08/11 13:57:24;;;;;;;6.00;2.33;;;;;;;;;;6271542;22;20090;-85
2021/08/11 13:59:51;;;;;;;3.58;2.47;;;;;;;;;;6244213;22;20024;-85
2021/08/11 14:02:18;;;;;;;4.65;2.40;;;;;;;;;;6244971;22;20197;-85
2021/08/11 14:04:45;;;;;;;5.25;2.33;;;;;;;;;;6272407;22;20157;-85
2021/08/11 14:07:11;;;;;;;2.85;2.22;;;;;;;;;;6271945;22;20027;-85
2021/08/11 14:09:41;;;;;;;5.55;2.00;;;;;;;;;;6241028;22;20291;-86
2021/08/11 14:12:08;;;;;;;3.05;2.10;;;;;;;;;;6276894;22;20034;-85
2021/08/11 14:14:36;;;;;;;4.70;1.90;;;;;;;;;;6245839;22;20027;-84
2021/08/11 14:17:12;;;;;;;6.25;2.10;;;;;;;;;;6272269;22;20024;-85
2021/08/11 14:19:38;;;;;;;3.38;1.80;;;;;;;;;;6271820;22;20050;-85
2021/08/11 14:22:11;;;;;;;3.65;2.30;;;;;;;;;;6251509;22;20023;-86
2021/08/11 14:24:47;;;;;;;3.95;1.90;;;;;;;;;;6249903;22;20027;-84
2021/08/11 14:27:14;;;;;;;4.80;2.45;;;;;;;;;;6272345;22;20031;-85
2021/08/11 14:29:44;;;;;;;9.82;2.80;;;;;;;;;;6270198;22;20027;-85
2021/08/11 14:32:10;;;;;;;4.38;2.10;;;;;;;;;;6242452;22;20118;-85
2021/08/11 14:34:37;;;;;;;4.78;2.40;;;;;;;;;;6239138;23;20435;-84
2021/08/11 14:37:08;;;;;;;5.93;2.20;;;;;;;;;;6238754;23;20020;-84
2021/08/11 14:39:37;;;;;;;4.85;2.00;;;;;;;;;;6214148;23;20054;-84
2021/08/11 14:42:10;;;;;;;3.05;1.80;;;;;;;;;;6240115;23;20074;-85
2021/08/11 14:44:37;;;;;;;4.57;2.03;;;;;;;;;;6236763;23;20171;-85
2021/08/11 14:47:03;;;;;;;2.75;1.95;;;;;;;;;;6238191;23;20101;-84